Date,TemperatureHighF,TemperatureAvgF,TemperatureLowF,DewpointHighF,DewpointAvgF,DewpointLowF,HumidityHigh,HumidityAvg,HumidityLow,PressureMaxIn,PressureMinIn,WindSpeedMaxMPH,WindSpeedAvgMPH,GustSpeedMaxMPH,PrecipitationSumIn
2013-8-1,69.6,67.1,66.4,69.0,66.5,65.8,98,98,98,29.79,29.74,0,0,0,0.00
2013-8-5,73.0,58.7,49.8,61.8,56.3,49.3,98,92,68,30.00,29.90,2,0,0,0.00
2013-8-7,68.2,67.3,64.8,67.0,66.1,64.2,98,96,92,29.94,29.87,2,0,0,0.00
2013-8-10,86.7,79.7,66.4,71.6,66.4,62.4,95,65,49,29.94,29.86,6,2,0,0.00
2013-8-11,86.0,76.1,61.9,69.1,66.2,61.3,98,73,56,29.99,29.87,8,1,0,0.00
2013-8-12,61.3,60.8,60.4,60.7,60.2,59.8,98,98,98,29.92,29.91,0,0,0,0.00
2013-8-13,65.7,65.3,64.8,65.1,64.7,64.2,98,98,98,29.78,29.66,2,0,0,0.00
2013-8-14,67.1,61.0,55.2,54.8,53.0,51.5,91,75,64,29.96,29.90,3,1,0,0.00
2013-8-19,79.9,68.3,63.0,69.6,65.8,62.4,98,92,71,29.95,29.91,0,0,0,0.00
2013-8-20,89.2,70.9,61.0,71.0,64.6,60.4,98,84,47,30.06,29.95,7,2,0,0.00
2013-8-21,85.6,65.6,55.8,71.5,63.3,55.2,98,93,63,30.10,29.91,3,0,0,0.00
2013-8-22,87.6,75.0,65.1,75.3,70.2,64.5,98,87,61,29.94,29.72,7,2,0,0.03
2013-8-23,81.9,66.0,64.0,66.9,64.4,61.6,98,96,52,29.93,29.83,4,0,0,0.01
2013-8-24,83.1,71.8,55.8,62.2,59.8,55.2,98,69,47,30.21,30.14,4,1,0,0.00
2013-8-25,84.9,65.7,50.4,67.8,59.3,49.9,98,83,51,30.30,30.08,5,1,0,0.00
2013-8-26,88.0,71.5,61.0,72.7,67.2,60.4,98,88,58,30.10,29.81,4,1,0,0.01
2013-8-27,80.1,72.1,70.0,74.8,70.9,69.4,98,96,83,29.83,29.80,3,1,0,0.00
2013-8-28,81.9,77.4,71.6,78.2,75.3,71.0,98,94,83,29.76,29.69,5,1,0,0.17
2013-8-29,91.0,77.1,64.9,76.5,71.4,64.3,98,85,58,29.89,29.75,5,1,0,0.01
2013-8-30,87.3,85.2,81.3,72.7,71.9,70.6,70,65,62,29.69,29.67,3,2,0,0.00
2013-8-31,88.5,82.9,72.9,77.7,75.8,72.3,98,80,68,29.71,29.59,7,2,0,0.01